Terminal Aerodrome Forecast
Issued by NWS Greer, SC

Home | Current Version | Previous Version | Text Only | Print | Product List | Glossary On
Versions: 1 2 3 4 5 6 7 8 9 10 11 12 13 14 15 16 17 18 19 20 21 22 23 24 25
000
FTUS42 KGSP 232114 CCA
TAFCLT
TAF COR
KCLT 232114Z 2321/2418 24015G25KT 6SM -SHRA BR SCT009 OVC017
      WS020/15045KT
      TEMPO 2321/2323 VRB15G25KT 2SM +TSRA BR OVC009CB
     FM232300 18013G23KT P6SM -SHRA BKN025
     FM240100 18011KT P6SM BKN035
     FM240700 24004KT P6SM BKN250
     FM241500 23008KT P6SM BKN250=

USA.gov is the U.S. government's official web portal to all federal, state and local government web resources and services.